sensor_id;sensor_type;location;lat;lon;timestamp;P1;durP1;ratioP1;P2;durP2;ratioP2
72125;SDS011;59999;51.676;22.650;2022-10-16T00:02:06;30.00;;;13.77;;
72125;SDS011;59999;51.676;22.650;2022-10-16T00:04:32;25.77;;;13.70;;
72125;SDS011;59999;51.676;22.650;2022-10-16T00:06:58;26.73;;;13.65;;
72125;SDS011;59999;51.676;22.650;2022-10-16T00:09:24;26.27;;;13.65;;
72125;SDS011;59999;51.676;22.650;2022-10-16T00:11:50;25.88;;;13.45;;
72125;SDS011;59999;51.676;22.650;2022-10-16T00:14:15;24.27;;;13.10;;
72125;SDS011;59999;51.676;22.650;2022-10-16T00:16:42;25.83;;;13.05;;
72125;SDS011;59999;51.676;22.650;2022-10-16T00:19:09;29.45;;;13.48;;
72125;SDS011;59999;51.676;22.650;2022-10-16T00:21:36;24.88;;;12.77;;
72125;SDS011;59999;51.676;22.650;2022-10-16T00:24:03;25.77;;;13.27;;
72125;SDS011;59999;51.676;22.650;2022-10-16T00:26:32;30.38;;;13.68;;
72125;SDS011;59999;51.676;22.650;2022-10-16T00:28:59;27.02;;;13.27;;
72125;SDS011;59999;51.676;22.650;2022-10-16T00:31:25;25.80;;;12.88;;
72125;SDS011;59999;51.676;22.650;2022-10-16T00:33:52;27.70;;;13.45;;
72125;SDS011;59999;51.676;22.650;2022-10-16T00:36:19;25.77;;;12.90;;
72125;SDS011;59999;51.676;22.650;2022-10-16T00:38:46;29.98;;;14.25;;
72125;SDS011;59999;51.676;22.650;2022-10-16T00:41:19;28.05;;;13.18;;
72125;SDS011;59999;51.676;22.650;2022-10-16T00:43:50;26.35;;;13.70;;
72125;SDS011;59999;51.676;22.650;2022-10-16T00:51:35;27.33;;;12.95;;
72125;SDS011;59999;51.676;22.650;2022-10-16T00:54:03;30.23;;;13.98;;
72125;SDS011;59999;51.676;22.650;2022-10-16T00:56:36;30.77;;;13.57;;
72125;SDS011;59999;51.676;22.650;2022-10-16T00:59:07;26.30;;;12.93;;
72125;SDS011;59999;51.676;22.650;2022-10-16T01:01:43;26.93;;;12.67;;
72125;SDS011;59999;51.676;22.650;2022-10-16T01:04:09;25.25;;;12.95;;
72125;SDS011;59999;51.676;22.650;2022-10-16T01:06:51;26.48;;;13.40;;
72125;SDS011;59999;51.676;22.650;2022-10-16T01:09:37;26.60;;;13.15;;
72125;SDS011;59999;51.676;22.650;2022-10-16T01:20:30;25.30;;;12.48;;
72125;SDS011;59999;51.676;22.650;2022-10-16T01:28:26;24.83;;;13.10;;
72125;SDS011;59999;51.676;22.650;2022-10-16T01:30:59;25.55;;;13.38;;
72125;SDS011;59999;51.676;22.650;2022-10-16T01:33:31;29.55;;;13.52;;
72125;SDS011;59999;51.676;22.650;2022-10-16T01:36:11;23.38;;;12.25;;
72125;SDS011;59999;51.676;22.650;2022-10-16T01:38:40;25.50;;;13.07;;
72125;SDS011;59999;51.676;22.650;2022-10-16T01:41:15;28.55;;;13.45;;
72125;SDS011;59999;51.676;22.650;2022-10-16T01:44:01;26.67;;;13.52;;
72125;SDS011;59999;51.676;22.650;2022-10-16T01:46:31;27.00;;;13.45;;
72125;SDS011;59999;51.676;22.650;2022-10-16T01:49:00;26.17;;;12.57;;
72125;SDS011;59999;51.676;22.650;2022-10-16T01:51:27;24.43;;;12.83;;
72125;SDS011;59999;51.676;22.650;2022-10-16T01:53:55;27.08;;;13.35;;
72125;SDS011;59999;51.676;22.650;2022-10-16T01:56:24;27.63;;;13.20;;
72125;SDS011;59999;51.676;22.650;2022-10-16T01:58:53;27.70;;;12.85;;
72125;SDS011;59999;51.676;22.650;2022-10-16T02:01:23;27.75;;;13.15;;
72125;SDS011;59999;51.676;22.650;2022-10-16T02:03:53;24.37;;;13.07;;
72125;SDS011;59999;51.676;22.650;2022-10-16T02:06:20;27.45;;;13.50;;
72125;SDS011;59999;51.676;22.650;2022-10-16T02:08:47;28.35;;;13.63;;
72125;SDS011;59999;51.676;22.650;2022-10-16T02:11:13;25.83;;;13.38;;
72125;SDS011;59999;51.676;22.650;2022-10-16T02:13:46;27.93;;;13.50;;
72125;SDS011;59999;51.676;22.650;2022-10-16T02:16:16;26.45;;;13.23;;
72125;SDS011;59999;51.676;22.650;2022-10-16T02:18:42;28.63;;;13.52;;
72125;SDS011;59999;51.676;22.650;2022-10-16T02:24:05;30.75;;;13.55;;
72125;SDS011;59999;51.676;22.650;2022-10-16T02:26:40;27.37;;;12.70;;
72125;SDS011;59999;51.676;22.650;2022-10-16T02:29:16;29.92;;;13.55;;
72125;SDS011;59999;51.676;22.650;2022-10-16T02:31:47;25.75;;;12.93;;
72125;SDS011;59999;51.676;22.650;2022-10-16T02:34:18;28.17;;;14.20;;
72125;SDS011;59999;51.676;22.650;2022-10-16T02:36:47;27.58;;;13.48;;
72125;SDS011;59999;51.676;22.650;2022-10-16T02:39:15;26.83;;;13.47;;
72125;SDS011;59999;51.676;22.650;2022-10-16T02:41:42;30.27;;;14.52;;
72125;SDS011;59999;51.676;22.650;2022-10-16T02:44:08;28.40;;;14.18;;
72125;SDS011;59999;51.676;22.650;2022-10-16T02:46:34;29.10;;;13.90;;
72125;SDS011;59999;51.676;22.650;2022-10-16T02:49:00;28.60;;;13.33;;
72125;SDS011;59999;51.676;22.650;2022-10-16T02:51:26;33.53;;;14.18;;
72125;SDS011;59999;51.676;22.650;2022-10-16T02:53:52;27.70;;;13.45;;
72125;SDS011;59999;51.676;22.650;2022-10-16T02:56:18;27.67;;;13.80;;
72125;SDS011;59999;51.676;22.650;2022-10-16T02:58:44;29.33;;;14.20;;
72125;SDS011;59999;51.676;22.650;2022-10-16T03:01:10;25.30;;;13.07;;
72125;SDS011;59999;51.676;22.650;2022-10-16T03:03:38;29.63;;;13.85;;
72125;SDS011;59999;51.676;22.650;2022-10-16T03:06:04;31.23;;;15.00;;
72125;SDS011;59999;51.676;22.650;2022-10-16T03:08:31;31.67;;;14.63;;
72125;SDS011;59999;51.676;22.650;2022-10-16T03:10:57;31.67;;;14.85;;
72125;SDS011;59999;51.676;22.650;2022-10-16T03:13:23;31.65;;;15.05;;
72125;SDS011;59999;51.676;22.650;2022-10-16T03:15:49;30.37;;;14.20;;
72125;SDS011;59999;51.676;22.650;2022-10-16T03:18:15;32.60;;;14.98;;
72125;SDS011;59999;51.676;22.650;2022-10-16T03:20:42;35.20;;;13.88;;
72125;SDS011;59999;51.676;22.650;2022-10-16T03:23:08;29.27;;;14.18;;
72125;SDS011;59999;51.676;22.650;2022-10-16T03:25:34;32.63;;;15.20;;
72125;SDS011;59999;51.676;22.650;2022-10-16T03:28:01;34.00;;;15.55;;
72125;SDS011;59999;51.676;22.650;2022-10-16T03:30:27;31.90;;;14.75;;
72125;SDS011;59999;51.676;22.650;2022-10-16T03:32:53;28.42;;;14.40;;
72125;SDS011;59999;51.676;22.650;2022-10-16T03:35:20;32.30;;;15.23;;
72125;SDS011;59999;51.676;22.650;2022-10-16T03:37:46;29.90;;;15.07;;
72125;SDS011;59999;51.676;22.650;2022-10-16T03:40:12;31.80;;;14.52;;
72125;SDS011;59999;51.676;22.650;2022-10-16T03:42:39;28.10;;;15.00;;
72125;SDS011;59999;51.676;22.650;2022-10-16T03:45:05;32.03;;;14.77;;
72125;SDS011;59999;51.676;22.650;2022-10-16T03:47:31;31.85;;;14.50;;
72125;SDS011;59999;51.676;22.650;2022-10-16T03:49:59;30.52;;;14.57;;
72125;SDS011;59999;51.676;22.650;2022-10-16T03:52:25;27.92;;;13.98;;
72125;SDS011;59999;51.676;22.650;2022-10-16T03:54:52;31.80;;;14.63;;
72125;SDS011;59999;51.676;22.650;2022-10-16T03:57:18;28.13;;;13.60;;
72125;SDS011;59999;51.676;22.650;2022-10-16T03:59:44;29.63;;;14.55;;
72125;SDS011;59999;51.676;22.650;2022-10-16T04:02:10;30.48;;;14.02;;
72125;SDS011;59999;51.676;22.650;2022-10-16T04:04:35;27.77;;;13.50;;
72125;SDS011;59999;51.676;22.650;2022-10-16T04:07:02;28.97;;;13.67;;
72125;SDS011;59999;51.676;22.650;2022-10-16T04:09:28;34.78;;;13.73;;
72125;SDS011;59999;51.676;22.650;2022-10-16T04:11:54;29.17;;;14.23;;
72125;SDS011;59999;51.676;22.650;2022-10-16T04:14:20;27.37;;;13.93;;
72125;SDS011;59999;51.676;22.650;2022-10-16T04:16:46;27.70;;;13.60;;
72125;SDS011;59999;51.676;22.650;2022-10-16T04:19:12;28.23;;;13.25;;
72125;SDS011;59999;51.676;22.650;2022-10-16T04:21:38;27.42;;;13.38;;
72125;SDS011;59999;51.676;22.650;2022-10-16T04:24:04;29.27;;;13.18;;
72125;SDS011;59999;51.676;22.650;2022-10-16T04:26:31;29.83;;;13.93;;
72125;SDS011;59999;51.676;22.650;2022-10-16T04:28:56;27.48;;;13.82;;
72125;SDS011;59999;51.676;22.650;2022-10-16T04:31:22;26.10;;;13.43;;
72125;SDS011;59999;51.676;22.650;2022-10-16T04:33:48;30.60;;;13.77;;
72125;SDS011;59999;51.676;22.650;2022-10-16T04:36:14;29.42;;;13.90;;
72125;SDS011;59999;51.676;22.650;2022-10-16T04:38:40;27.25;;;13.88;;
72125;SDS011;59999;51.676;22.650;2022-10-16T04:41:06;29.83;;;13.32;;
72125;SDS011;59999;51.676;22.650;2022-10-16T04:43:33;29.67;;;13.53;;
72125;SDS011;59999;51.676;22.650;2022-10-16T04:45:59;31.25;;;14.13;;
72125;SDS011;59999;51.676;22.650;2022-10-16T04:48:26;31.05;;;13.90;;
72125;SDS011;59999;51.676;22.650;2022-10-16T04:50:52;28.85;;;14.25;;
72125;SDS011;59999;51.676;22.650;2022-10-16T04:53:18;26.57;;;13.40;;
72125;SDS011;59999;51.676;22.650;2022-10-16T04:55:44;30.90;;;14.05;;
72125;SDS011;59999;51.676;22.650;2022-10-16T04:58:09;28.30;;;14.05;;
72125;SDS011;59999;51.676;22.650;2022-10-16T05:00:36;31.95;;;13.52;;
72125;SDS011;59999;51.676;22.650;2022-10-16T05:03:17;29.30;;;13.38;;
72125;SDS011;59999;51.676;22.650;2022-10-16T05:05:43;30.13;;;14.07;;
72125;SDS011;59999;51.676;22.650;2022-10-16T05:08:11;28.27;;;13.95;;
72125;SDS011;59999;51.676;22.650;2022-10-16T05:10:42;33.05;;;14.82;;
72125;SDS011;59999;51.676;22.650;2022-10-16T05:13:08;29.30;;;13.80;;
72125;SDS011;59999;51.676;22.650;2022-10-16T05:15:35;28.52;;;13.57;;
72125;SDS011;59999;51.676;22.650;2022-10-16T05:18:01;31.33;;;13.53;;
72125;SDS011;59999;51.676;22.650;2022-10-16T05:20:27;28.02;;;13.70;;
72125;SDS011;59999;51.676;22.650;2022-10-16T05:22:53;29.42;;;13.98;;
72125;SDS011;59999;51.676;22.650;2022-10-16T05:25:19;23.65;;;12.50;;
72125;SDS011;59999;51.676;22.650;2022-10-16T05:27:48;26.53;;;12.87;;
72125;SDS011;59999;51.676;22.650;2022-10-16T05:30:16;29.77;;;13.50;;
72125;SDS011;59999;51.676;22.650;2022-10-16T05:32:49;27.90;;;12.95;;
72125;SDS011;59999;51.676;22.650;2022-10-16T05:35:16;27.20;;;14.05;;
72125;SDS011;59999;51.676;22.650;2022-10-16T05:37:43;27.40;;;13.40;;
72125;SDS011;59999;51.676;22.650;2022-10-16T05:40:09;25.23;;;12.57;;
72125;SDS011;59999;51.676;22.650;2022-10-16T05:42:36;26.63;;;12.90;;
72125;SDS011;59999;51.676;22.650;2022-10-16T05:45:03;25.90;;;13.15;;
72125;SDS011;59999;51.676;22.650;2022-10-16T05:47:30;27.88;;;12.90;;
72125;SDS011;59999;51.676;22.650;2022-10-16T05:49:56;25.70;;;13.38;;
72125;SDS011;59999;51.676;22.650;2022-10-16T05:52:22;25.67;;;12.93;;
72125;SDS011;59999;51.676;22.650;2022-10-16T05:54:48;25.98;;;13.02;;
72125;SDS011;59999;51.676;22.650;2022-10-16T05:57:14;29.40;;;13.60;;
72125;SDS011;59999;51.676;22.650;2022-10-16T05:59:40;27.30;;;13.53;;
72125;SDS011;59999;51.676;22.650;2022-10-16T06:02:07;25.15;;;12.45;;
72125;SDS011;59999;51.676;22.650;2022-10-16T06:04:38;28.58;;;13.38;;
72125;SDS011;59999;51.676;22.650;2022-10-16T06:07:03;27.77;;;13.33;;
72125;SDS011;59999;51.676;22.650;2022-10-16T06:09:30;26.10;;;13.23;;
72125;SDS011;59999;51.676;22.650;2022-10-16T06:11:55;26.15;;;12.88;;
72125;SDS011;59999;51.676;22.650;2022-10-16T06:14:22;27.63;;;13.13;;
72125;SDS011;59999;51.676;22.650;2022-10-16T06:16:47;32.17;;;13.97;;
72125;SDS011;59999;51.676;22.650;2022-10-16T06:19:13;29.13;;;13.40;;
72125;SDS011;59999;51.676;22.650;2022-10-16T06:21:41;27.23;;;13.15;;
72125;SDS011;59999;51.676;22.650;2022-10-16T06:24:07;28.48;;;13.75;;
72125;SDS011;59999;51.676;22.650;2022-10-16T06:26:33;27.00;;;13.33;;
72125;SDS011;59999;51.676;22.650;2022-10-16T06:28:59;26.15;;;12.90;;
72125;SDS011;59999;51.676;22.650;2022-10-16T06:31:26;26.42;;;14.77;;
72125;SDS011;59999;51.676;22.650;2022-10-16T06:33:55;27.35;;;13.43;;
72125;SDS011;59999;51.676;22.650;2022-10-16T06:36:22;26.02;;;13.50;;
72125;SDS011;59999;51.676;22.650;2022-10-16T06:38:49;26.67;;;13.63;;
72125;SDS011;59999;51.676;22.650;2022-10-16T06:41:16;25.98;;;13.65;;
72125;SDS011;59999;51.676;22.650;2022-10-16T06:43:44;25.33;;;13.05;;
72125;SDS011;59999;51.676;22.650;2022-10-16T06:46:11;25.90;;;13.40;;
72125;SDS011;59999;51.676;22.650;2022-10-16T06:48:39;25.33;;;13.18;;
72125;SDS011;59999;51.676;22.650;2022-10-16T06:51:06;26.67;;;13.07;;
72125;SDS011;59999;51.676;22.650;2022-10-16T06:53:36;28.85;;;13.18;;
72125;SDS011;59999;51.676;22.650;2022-10-16T06:56:22;24.77;;;12.75;;
72125;SDS011;59999;51.676;22.650;2022-10-16T06:58:50;24.77;;;12.73;;
72125;SDS011;59999;51.676;22.650;2022-10-16T07:01:17;24.87;;;12.87;;
72125;SDS011;59999;51.676;22.650;2022-10-16T07:03:45;24.65;;;12.85;;
72125;SDS011;59999;51.676;22.650;2022-10-16T07:06:12;24.42;;;13.15;;
72125;SDS011;59999;51.676;22.650;2022-10-16T07:08:41;23.58;;;12.88;;
72125;SDS011;59999;51.676;22.650;2022-10-16T07:11:09;23.48;;;12.35;;
72125;SDS011;59999;51.676;22.650;2022-10-16T07:13:38;24.80;;;12.20;;
72125;SDS011;59999;51.676;22.650;2022-10-16T07:16:09;24.95;;;12.00;;
72125;SDS011;59999;51.676;22.650;2022-10-16T07:18:37;25.38;;;12.10;;
72125;SDS011;59999;51.676;22.650;2022-10-16T07:21:12;22.75;;;12.13;;
72125;SDS011;59999;51.676;22.650;2022-10-16T07:23:40;22.65;;;12.38;;
72125;SDS011;59999;51.676;22.650;2022-10-16T07:26:06;23.03;;;12.87;;
72125;SDS011;59999;51.676;22.650;2022-10-16T07:28:33;24.45;;;12.43;;
72125;SDS011;59999;51.676;22.650;2022-10-16T07:31:01;21.08;;;11.65;;
72125;SDS011;59999;51.676;22.650;2022-10-16T07:33:31;22.95;;;12.18;;
72125;SDS011;59999;51.676;22.650;2022-10-16T07:35:57;23.25;;;12.02;;
72125;SDS011;59999;51.676;22.650;2022-10-16T07:38:23;22.50;;;11.80;;
72125;SDS011;59999;51.676;22.650;2022-10-16T07:40:55;22.65;;;11.77;;
72125;SDS011;59999;51.676;22.650;2022-10-16T07:43:26;20.83;;;11.52;;
72125;SDS011;59999;51.676;22.650;2022-10-16T07:45:52;22.50;;;11.70;;
72125;SDS011;59999;51.676;22.650;2022-10-16T07:48:18;19.23;;;10.90;;
72125;SDS011;59999;51.676;22.650;2022-10-16T07:50:44;20.58;;;10.57;;
72125;SDS011;59999;51.676;22.650;2022-10-16T07:53:11;21.95;;;11.93;;
72125;SDS011;59999;51.676;22.650;2022-10-16T07:55:37;20.67;;;11.45;;
72125;SDS011;59999;51.676;22.650;2022-10-16T07:58:03;21.85;;;11.00;;
72125;SDS011;59999;51.676;22.650;2022-10-16T08:00:29;22.20;;;11.27;;
72125;SDS011;59999;51.676;22.650;2022-10-16T08:02:56;21.45;;;11.43;;
72125;SDS011;59999;51.676;22.650;2022-10-16T08:05:28;21.38;;;10.85;;
72125;SDS011;59999;51.676;22.650;2022-10-16T08:07:56;24.10;;;11.15;;
72125;SDS011;59999;51.676;22.650;2022-10-16T08:10:23;20.67;;;11.27;;
72125;SDS011;59999;51.676;22.650;2022-10-16T08:12:51;22.60;;;11.07;;
72125;SDS011;59999;51.676;22.650;2022-10-16T08:15:18;21.23;;;10.90;;
72125;SDS011;59999;51.676;22.650;2022-10-16T08:17:53;20.40;;;11.60;;
72125;SDS011;59999;51.676;22.650;2022-10-16T08:20:20;20.08;;;10.07;;
72125;SDS011;59999;51.676;22.650;2022-10-16T08:22:46;18.85;;;10.48;;
72125;SDS011;59999;51.676;22.650;2022-10-16T08:25:12;22.23;;;11.13;;
72125;SDS011;59999;51.676;22.650;2022-10-16T08:27:38;19.58;;;10.52;;
72125;SDS011;59999;51.676;22.650;2022-10-16T08:30:05;21.10;;;10.55;;
72125;SDS011;59999;51.676;22.650;2022-10-16T08:32:31;20.15;;;10.10;;
72125;SDS011;59999;51.676;22.650;2022-10-16T08:34:57;22.17;;;9.77;;
72125;SDS011;59999;51.676;22.650;2022-10-16T08:37:23;20.55;;;10.93;;
72125;SDS011;59999;51.676;22.650;2022-10-16T08:39:50;18.60;;;10.75;;
72125;SDS011;59999;51.676;22.650;2022-10-16T08:42:22;18.83;;;9.98;;
72125;SDS011;59999;51.676;22.650;2022-10-16T08:47:35;18.60;;;10.48;;
72125;SDS011;59999;51.676;22.650;2022-10-16T08:50:11;16.67;;;9.95;;
72125;SDS011;59999;51.676;22.650;2022-10-16T08:52:42;18.20;;;9.20;;
72125;SDS011;59999;51.676;22.650;2022-10-16T08:58:11;16.80;;;9.77;;
72125;SDS011;59999;51.676;22.650;2022-10-16T09:00:41;19.25;;;9.98;;
72125;SDS011;59999;51.676;22.650;2022-10-16T09:03:17;18.05;;;10.32;;
72125;SDS011;59999;51.676;22.650;2022-10-16T09:05:52;19.70;;;10.05;;
72125;SDS011;59999;51.676;22.650;2022-10-16T09:08:35;17.02;;;9.48;;
72125;SDS011;59999;51.676;22.650;2022-10-16T09:11:16;17.70;;;8.93;;
72125;SDS011;59999;51.676;22.650;2022-10-16T09:21:35;22.38;;;9.90;;
72125;SDS011;59999;51.676;22.650;2022-10-16T09:24:10;18.50;;;9.13;;
72125;SDS011;59999;51.676;22.650;2022-10-16T09:26:39;18.95;;;9.70;;
72125;SDS011;59999;51.676;22.650;2022-10-16T09:29:06;23.08;;;10.35;;
72125;SDS011;59999;51.676;22.650;2022-10-16T09:31:33;18.65;;;8.90;;
72125;SDS011;59999;51.676;22.650;2022-10-16T09:34:02;18.98;;;9.52;;
72125;SDS011;59999;51.676;22.650;2022-10-16T09:36:35;19.20;;;9.47;;
72125;SDS011;59999;51.676;22.650;2022-10-16T09:39:08;16.95;;;9.40;;
72125;SDS011;59999;51.676;22.650;2022-10-16T09:41:39;17.10;;;9.38;;
72125;SDS011;59999;51.676;22.650;2022-10-16T09:47:04;16.58;;;9.05;;
72125;SDS011;59999;51.676;22.650;2022-10-16T09:49:38;15.83;;;8.90;;
72125;SDS011;59999;51.676;22.650;2022-10-16T09:52:13;15.48;;;8.70;;
72125;SDS011;59999;51.676;22.650;2022-10-16T09:54:53;16.10;;;8.90;;
72125;SDS011;59999;51.676;22.650;2022-10-16T09:57:22;15.50;;;8.65;;
72125;SDS011;59999;51.676;22.650;2022-10-16T09:59:52;17.08;;;9.27;;
72125;SDS011;59999;51.676;22.650;2022-10-16T10:02:23;18.50;;;9.60;;
72125;SDS011;59999;51.676;22.650;2022-10-16T10:04:57;17.23;;;9.75;;
72125;SDS011;59999;51.676;22.650;2022-10-16T10:07:26;16.42;;;9.32;;
72125;SDS011;59999;51.676;22.650;2022-10-16T10:09:59;16.00;;;9.40;;
72125;SDS011;59999;51.676;22.650;2022-10-16T10:12:29;14.23;;;8.70;;
72125;SDS011;59999;51.676;22.650;2022-10-16T10:15:04;17.27;;;8.80;;
72125;SDS011;59999;51.676;22.650;2022-10-16T10:17:53;14.70;;;9.05;;
72125;SDS011;59999;51.676;22.650;2022-10-16T10:20:22;17.27;;;9.90;;
72125;SDS011;59999;51.676;22.650;2022-10-16T10:22:51;18.65;;;8.95;;
72125;SDS011;59999;51.676;22.650;2022-10-16T10:30:25;15.77;;;8.93;;
72125;SDS011;59999;51.676;22.650;2022-10-16T10:35:45;14.18;;;8.80;;
72125;SDS011;59999;51.676;22.650;2022-10-16T10:38:27;13.73;;;8.35;;
72125;SDS011;59999;51.676;22.650;2022-10-16T10:43:39;14.15;;;9.20;;
72125;SDS011;59999;51.676;22.650;2022-10-16T10:46:38;16.48;;;9.32;;
72125;SDS011;59999;51.676;22.650;2022-10-16T10:49:22;14.63;;;8.88;;
72125;SDS011;59999;51.676;22.650;2022-10-16T10:57:29;16.10;;;8.65;;
72125;SDS011;59999;51.676;22.650;2022-10-16T11:00:26;15.68;;;8.80;;
72125;SDS011;59999;51.676;22.650;2022-10-16T11:08:49;15.83;;;9.27;;
72125;SDS011;59999;51.676;22.650;2022-10-16T11:13:52;15.70;;;9.45;;
72125;SDS011;59999;51.676;22.650;2022-10-16T11:16:39;17.77;;;9.70;;
72125;SDS011;59999;51.676;22.650;2022-10-16T11:19:30;17.33;;;9.55;;
72125;SDS011;59999;51.676;22.650;2022-10-16T11:22:04;14.93;;;8.57;;
72125;SDS011;59999;51.676;22.650;2022-10-16T11:24:37;15.18;;;8.68;;
72125;SDS011;59999;51.676;22.650;2022-10-16T11:27:19;17.55;;;8.88;;
72125;SDS011;59999;51.676;22.650;2022-10-16T11:29:53;14.60;;;8.77;;
72125;SDS011;59999;51.676;22.650;2022-10-16T11:32:34;15.70;;;9.43;;
72125;SDS011;59999;51.676;22.650;2022-10-16T11:35:11;16.70;;;8.30;;
72125;SDS011;59999;51.676;22.650;2022-10-16T11:37:45;26.80;;;8.85;;
72125;SDS011;59999;51.676;22.650;2022-10-16T11:40:30;15.85;;;8.85;;
72125;SDS011;59999;51.676;22.650;2022-10-16T11:43:06;15.95;;;8.77;;
72125;SDS011;59999;51.676;22.650;2022-10-16T11:45:46;18.63;;;8.75;;
72125;SDS011;59999;51.676;22.650;2022-10-16T11:51:19;16.90;;;8.95;;
72125;SDS011;59999;51.676;22.650;2022-10-16T11:56:58;14.77;;;8.55;;
72125;SDS011;59999;51.676;22.650;2022-10-16T11:59:45;16.08;;;8.60;;
72125;SDS011;59999;51.676;22.650;2022-10-16T12:02:23;14.13;;;8.60;;
72125;SDS011;59999;51.676;22.650;2022-10-16T12:05:11;20.58;;;9.23;;
72125;SDS011;59999;51.676;22.650;2022-10-16T12:10:29;15.68;;;8.50;;
72125;SDS011;59999;51.676;22.650;2022-10-16T12:13:03;13.30;;;7.95;;
72125;SDS011;59999;51.676;22.650;2022-10-16T12:15:31;15.70;;;9.10;;
72125;SDS011;59999;51.676;22.650;2022-10-16T12:17:59;15.15;;;9.02;;
72125;SDS011;59999;51.676;22.650;2022-10-16T12:20:27;15.23;;;8.80;;
72125;SDS011;59999;51.676;22.650;2022-10-16T12:25:31;14.43;;;8.48;;
72125;SDS011;59999;51.676;22.650;2022-10-16T12:28:15;16.77;;;8.73;;
72125;SDS011;59999;51.676;22.650;2022-10-16T12:30:52;14.82;;;8.60;;
72125;SDS011;59999;51.676;22.650;2022-10-16T12:33:27;15.32;;;8.57;;
72125;SDS011;59999;51.676;22.650;2022-10-16T12:35:55;14.57;;;8.38;;
72125;SDS011;59999;51.676;22.650;2022-10-16T12:43:25;14.52;;;8.32;;
72125;SDS011;59999;51.676;22.650;2022-10-16T12:46:48;15.90;;;8.20;;
72125;SDS011;59999;51.676;22.650;2022-10-16T12:51:40;15.45;;;8.63;;
72125;SDS011;59999;51.676;22.650;2022-10-16T12:54:12;16.40;;;8.47;;
72125;SDS011;59999;51.676;22.650;2022-10-16T13:08:20;13.20;;;7.70;;
72125;SDS011;59999;51.676;22.650;2022-10-16T13:11:05;14.27;;;7.70;;
72125;SDS011;59999;51.676;22.650;2022-10-16T13:13:49;14.70;;;8.55;;
72125;SDS011;59999;51.676;22.650;2022-10-16T13:19:11;13.40;;;7.78;;
72125;SDS011;59999;51.676;22.650;2022-10-16T13:28:02;14.90;;;8.88;;
72125;SDS011;59999;51.676;22.650;2022-10-16T13:30:39;15.25;;;8.80;;
72125;SDS011;59999;51.676;22.650;2022-10-16T13:33:11;15.50;;;8.70;;
72125;SDS011;59999;51.676;22.650;2022-10-16T13:35:51;17.30;;;9.60;;
72125;SDS011;59999;51.676;22.650;2022-10-16T13:40:50;16.70;;;9.43;;
72125;SDS011;59999;51.676;22.650;2022-10-16T13:43:26;15.77;;;8.68;;
72125;SDS011;59999;51.676;22.650;2022-10-16T13:46:03;14.88;;;7.80;;
72125;SDS011;59999;51.676;22.650;2022-10-16T13:48:37;15.07;;;8.67;;
72125;SDS011;59999;51.676;22.650;2022-10-16T13:51:12;16.25;;;8.73;;
72125;SDS011;59999;51.676;22.650;2022-10-16T13:53:42;14.88;;;8.68;;
72125;SDS011;59999;51.676;22.650;2022-10-16T13:56:11;16.60;;;8.65;;
72125;SDS011;59999;51.676;22.650;2022-10-16T13:58:42;18.70;;;8.73;;
72125;SDS011;59999;51.676;22.650;2022-10-16T14:01:18;14.90;;;8.80;;
72125;SDS011;59999;51.676;22.650;2022-10-16T14:03:48;18.63;;;9.77;;
72125;SDS011;59999;51.676;22.650;2022-10-16T14:06:19;15.93;;;9.13;;
72125;SDS011;59999;51.676;22.650;2022-10-16T14:08:49;20.13;;;9.45;;
72125;SDS011;59999;51.676;22.650;2022-10-16T14:11:22;17.48;;;9.60;;
72125;SDS011;59999;51.676;22.650;2022-10-16T14:13:49;16.57;;;9.33;;
72125;SDS011;59999;51.676;22.650;2022-10-16T14:16:17;18.23;;;9.80;;
72125;SDS011;59999;51.676;22.650;2022-10-16T14:19:02;17.65;;;9.55;;
72125;SDS011;59999;51.676;22.650;2022-10-16T14:21:32;14.98;;;8.90;;
72125;SDS011;59999;51.676;22.650;2022-10-16T14:23:59;14.20;;;8.07;;
72125;SDS011;59999;51.676;22.650;2022-10-16T14:26:40;18.37;;;9.57;;
72125;SDS011;59999;51.676;22.650;2022-10-16T14:29:11;20.23;;;10.18;;
72125;SDS011;59999;51.676;22.650;2022-10-16T14:31:39;17.52;;;9.02;;
72125;SDS011;59999;51.676;22.650;2022-10-16T14:34:22;15.13;;;9.00;;
72125;SDS011;59999;51.676;22.650;2022-10-16T14:36:54;16.25;;;9.32;;
72125;SDS011;59999;51.676;22.650;2022-10-16T14:39:21;16.97;;;8.97;;
72125;SDS011;59999;51.676;22.650;2022-10-16T14:41:49;16.27;;;9.60;;
72125;SDS011;59999;51.676;22.650;2022-10-16T14:44:19;19.63;;;9.48;;
72125;SDS011;59999;51.676;22.650;2022-10-16T14:46:49;15.80;;;9.02;;
72125;SDS011;59999;51.676;22.650;2022-10-16T14:49:16;16.52;;;9.18;;
72125;SDS011;59999;51.676;22.650;2022-10-16T14:51:45;17.13;;;9.83;;
72125;SDS011;59999;51.676;22.650;2022-10-16T14:54:12;16.05;;;9.40;;
72125;SDS011;59999;51.676;22.650;2022-10-16T14:59:17;18.52;;;9.95;;
72125;SDS011;59999;51.676;22.650;2022-10-16T15:01:50;18.20;;;9.38;;
72125;SDS011;59999;51.676;22.650;2022-10-16T15:04:16;17.53;;;9.93;;
72125;SDS011;59999;51.676;22.650;2022-10-16T15:06:43;18.05;;;10.27;;
72125;SDS011;59999;51.676;22.650;2022-10-16T15:09:09;17.95;;;9.70;;
72125;SDS011;59999;51.676;22.650;2022-10-16T15:11:35;17.35;;;10.00;;
72125;SDS011;59999;51.676;22.650;2022-10-16T15:14:01;20.20;;;10.20;;
72125;SDS011;59999;51.676;22.650;2022-10-16T15:16:29;17.85;;;10.13;;
72125;SDS011;59999;51.676;22.650;2022-10-16T15:18:55;18.92;;;10.27;;
72125;SDS011;59999;51.676;22.650;2022-10-16T15:21:27;17.52;;;9.00;;
72125;SDS011;59999;51.676;22.650;2022-10-16T15:23:55;16.92;;;10.15;;
72125;SDS011;59999;51.676;22.650;2022-10-16T15:26:23;19.53;;;9.67;;
72125;SDS011;59999;51.676;22.650;2022-10-16T15:28:50;19.08;;;9.90;;
72125;SDS011;59999;51.676;22.650;2022-10-16T15:31:16;20.02;;;9.98;;
72125;SDS011;59999;51.676;22.650;2022-10-16T15:33:43;18.00;;;10.35;;
72125;SDS011;59999;51.676;22.650;2022-10-16T15:36:09;18.88;;;10.35;;
72125;SDS011;59999;51.676;22.650;2022-10-16T15:38:35;23.83;;;14.10;;
72125;SDS011;59999;51.676;22.650;2022-10-16T15:41:01;19.73;;;10.90;;
72125;SDS011;59999;51.676;22.650;2022-10-16T15:43:28;22.65;;;12.68;;
72125;SDS011;59999;51.676;22.650;2022-10-16T15:46:01;19.08;;;11.05;;
72125;SDS011;59999;51.676;22.650;2022-10-16T15:48:32;22.47;;;13.17;;
72125;SDS011;59999;51.676;22.650;2022-10-16T15:50:59;19.08;;;11.52;;
72125;SDS011;59999;51.676;22.650;2022-10-16T15:53:25;21.00;;;11.88;;
72125;SDS011;59999;51.676;22.650;2022-10-16T15:55:51;21.15;;;12.10;;
72125;SDS011;59999;51.676;22.650;2022-10-16T15:58:17;23.93;;;12.87;;
72125;SDS011;59999;51.676;22.650;2022-10-16T16:00:43;25.10;;;15.02;;
72125;SDS011;59999;51.676;22.650;2022-10-16T16:03:09;28.60;;;15.57;;
72125;SDS011;59999;51.676;22.650;2022-10-16T16:05:37;31.42;;;19.92;;
72125;SDS011;59999;51.676;22.650;2022-10-16T16:08:05;39.37;;;23.90;;
72125;SDS011;59999;51.676;22.650;2022-10-16T16:10:30;23.70;;;12.20;;
72125;SDS011;59999;51.676;22.650;2022-10-16T16:12:57;26.08;;;13.57;;
72125;SDS011;59999;51.676;22.650;2022-10-16T16:15:24;23.05;;;14.63;;
72125;SDS011;59999;51.676;22.650;2022-10-16T16:17:50;25.37;;;12.37;;